createdAt,value
2022-11-26T00:00:35.286Z,23.9
2022-11-26T00:05:53.764Z,23.9
2022-11-26T00:11:11.709Z,23.9
2022-11-26T00:16:30.379Z,23.9
2022-11-26T00:21:49.170Z,23.9
2022-11-26T00:27:07.946Z,23.8
2022-11-26T00:32:26.192Z,23.8
2022-11-26T00:37:44.385Z,23.8
2022-11-26T00:43:02.891Z,23.8
2022-11-26T00:48:21.373Z,23.8
2022-11-26T00:53:39.886Z,23.8
2022-11-26T00:58:58.645Z,23.8
2022-11-26T01:04:17.135Z,23.8
2022-11-26T01:09:35.594Z,23.8
2022-11-26T01:14:54.399Z,23.7
2022-11-26T01:20:12.580Z,23.8
2022-11-26T01:25:31.339Z,23.8
2022-11-26T01:30:49.573Z,23.8
2022-11-26T01:36:07.748Z,23.8
2022-11-26T01:41:25.978Z,23.8
2022-11-26T01:46:44.558Z,23.8
2022-11-26T01:52:03.092Z,23.8
2022-11-26T01:57:21.030Z,23.9
2022-11-26T02:02:39.318Z,23.9
2022-11-26T02:07:57.631Z,23.9
2022-11-26T02:13:16.479Z,23.9
2022-11-26T02:18:35.275Z,23.9
2022-11-26T02:23:53.730Z,23.9
2022-11-26T02:29:12.229Z,23.9
2022-11-26T02:34:38.181Z,23.9
2022-11-26T02:39:57.577Z,23.9
2022-11-26T02:45:16.357Z,23.9
2022-11-26T02:50:35.356Z,23.8
2022-11-26T02:55:53.957Z,23.9
2022-11-26T03:01:12.577Z,23.9
2022-11-26T03:06:31.240Z,23.9
2022-11-26T03:11:49.896Z,23.8
2022-11-26T03:17:08.115Z,23.9
2022-11-26T03:22:26.614Z,23.9
2022-11-26T03:27:45.085Z,23.9
2022-11-26T03:33:03.575Z,23.9
2022-11-26T03:38:22.081Z,23.9
2022-11-26T03:43:40.561Z,23.9
2022-11-26T03:48:59.051Z,23.9
2022-11-26T03:54:17.557Z,23.9
2022-11-26T03:59:36.023Z,23.9
2022-11-26T04:04:54.792Z,23.9
2022-11-26T04:10:13.037Z,23.9
2022-11-26T04:15:31.229Z,23.9
2022-11-26T04:20:53.709Z,23.9
2022-11-26T04:26:12.242Z,23.9
2022-11-26T04:31:31.120Z,23.9
2022-11-26T04:36:49.695Z,23.9
2022-11-26T04:42:08.207Z,23.9
2022-11-26T04:47:26.102Z,23.9
2022-11-26T04:52:44.865Z,23.9
2022-11-26T04:58:02.892Z,23.9
2022-11-26T05:03:21.090Z,23.9
2022-11-26T05:08:39.325Z,23.9
2022-11-26T05:13:57.843Z,24
2022-11-26T05:19:16.835Z,24
2022-11-26T05:24:35.571Z,24
2022-11-26T05:29:54.427Z,24
2022-11-26T05:35:12.917Z,24
2022-11-26T05:40:31.143Z,24
2022-11-26T05:45:50.113Z,24
2022-11-26T05:51:08.457Z,24
2022-11-26T05:56:26.658Z,24
2022-11-26T06:01:44.903Z,24
2022-11-26T06:07:03.340Z,24
2022-11-26T06:12:21.561Z,24
2022-11-26T06:17:40.341Z,23.9
2022-11-26T06:22:58.546Z,23.9
2022-11-26T06:28:17.311Z,23.9
2022-11-26T06:33:35.801Z,23.9
2022-11-26T06:38:53.999Z,23.9
2022-11-26T06:44:12.746Z,23.9
2022-11-26T06:49:31.276Z,23.9
2022-11-26T06:54:49.460Z,23.8
2022-11-26T07:00:07.669Z,23.8
2022-11-26T07:05:26.176Z,23.9
2022-11-26T07:10:49.458Z,23.9
2022-11-26T07:16:08.142Z,23.9
2022-11-26T07:21:26.449Z,23.9
2022-11-26T07:26:45.233Z,23.9
2022-11-26T07:32:03.910Z,23.9
2022-11-26T07:37:22.149Z,23.9
2022-11-26T07:42:40.333Z,23.9
2022-11-26T07:47:59.098Z,23.9
2022-11-26T07:53:17.890Z,24
2022-11-26T07:58:36.343Z,24
2022-11-26T08:03:55.130Z,24
2022-11-26T08:09:13.357Z,24
2022-11-26T08:14:32.104Z,24
2022-11-26T08:19:50.837Z,24
2022-11-26T08:25:09.068Z,23.9
2022-11-26T08:30:27.803Z,24
2022-11-26T08:36:08.778Z,24
2022-11-26T08:41:27.035Z,24
2022-11-26T08:46:45.526Z,24
2022-11-26T08:52:04.000Z,24
2022-11-26T08:57:22.804Z,24
2022-11-26T09:02:41.799Z,24.1
2022-11-26T09:08:00.785Z,24.1
2022-11-26T09:13:21.554Z,24.2
2022-11-26T09:18:39.897Z,24.2
2022-11-26T09:23:42.746Z,24.2
2022-11-26T09:29:01.646Z,24.3
2022-11-26T09:34:04.502Z,24.3
2022-11-26T09:39:22.964Z,24.4
2022-11-26T09:44:42.052Z,24.4
2022-11-26T09:50:01.592Z,24.4
2022-11-26T09:55:20.322Z,24.5
2022-11-26T10:00:39.318Z,24.5
2022-11-26T10:05:58.578Z,24.5
2022-11-26T10:11:17.341Z,24.5
2022-11-26T10:16:35.952Z,24.6
2022-11-26T10:22:00.009Z,24.6
2022-11-26T10:27:18.342Z,24.6
2022-11-26T10:32:36.869Z,24.7
2022-11-26T10:37:54.772Z,24.7
2022-11-26T10:43:12.975Z,24.7
2022-11-26T10:48:31.780Z,24.7
2022-11-26T10:53:50.264Z,24.7
2022-11-26T10:59:09.036Z,24.7
2022-11-26T11:04:27.829Z,24.8
2022-11-26T11:09:46.296Z,24.8
2022-11-26T11:15:04.805Z,24.8
2022-11-26T11:20:23.016Z,24.8
2022-11-26T11:25:31.794Z,24.8
2022-11-26T11:30:50.560Z,24.8
2022-11-26T11:36:08.791Z,24.8
2022-11-26T11:41:27.113Z,24.8
2022-11-26T11:46:45.861Z,24.8
2022-11-26T11:52:04.658Z,24.8
2022-11-26T11:57:23.395Z,24.8
2022-11-26T12:02:42.176Z,24.8
2022-11-26T12:08:01.140Z,24.8
2022-11-26T12:13:19.260Z,24.8
2022-11-26T12:18:38.046Z,24.8
2022-11-26T12:23:56.827Z,24.8
2022-11-26T12:29:15.618Z,24.8
2022-11-26T12:34:33.821Z,24.7
2022-11-26T12:39:54.632Z,24.7
2022-11-26T12:45:17.841Z,24.7
2022-11-26T12:50:39.448Z,24.7
2022-11-26T12:55:57.777Z,24.7
2022-11-26T13:01:16.708Z,24.7
2022-11-26T13:06:35.039Z,24.6
2022-11-26T13:11:52.977Z,24.7
2022-11-26T13:17:11.473Z,24.7
2022-11-26T13:22:29.959Z,24.7
2022-11-26T13:27:48.732Z,24.6
2022-11-26T13:33:07.223Z,24.6
2022-11-26T13:38:25.471Z,24.6
2022-11-26T13:43:43.989Z,24.5
2022-11-26T13:49:02.449Z,24.5
2022-11-26T13:54:20.671Z,24.5
2022-11-26T13:59:39.541Z,24.4
2022-11-26T14:04:58.389Z,24.4
2022-11-26T14:10:16.855Z,24.4
2022-11-26T14:15:35.346Z,24.4
2022-11-26T14:20:53.253Z,24.3
2022-11-26T14:26:12.032Z,24.3
2022-11-26T14:31:15.308Z,24.3
2022-11-26T14:36:33.945Z,24.3
2022-11-26T14:41:52.428Z,24.3
2022-11-26T14:47:10.948Z,24.4
2022-11-26T14:52:29.130Z,24.4
2022-11-26T14:57:47.891Z,24.4
2022-11-26T15:03:06.681Z,24.4
2022-11-26T15:08:25.252Z,24.4
2022-11-26T15:13:43.755Z,24.3
2022-11-26T15:19:02.533Z,24.2
2022-11-26T15:24:20.754Z,24.3
2022-11-26T15:29:38.957Z,24.2
2022-11-26T15:34:57.181Z,24.3
2022-11-26T15:40:15.938Z,24.2
2022-11-26T15:45:34.744Z,24.2
2022-11-26T15:50:53.055Z,24.2
2022-11-26T15:56:11.511Z,24.2
2022-11-26T16:01:30.418Z,24.2
2022-11-26T16:06:33.529Z,24.2
2022-11-26T16:11:51.953Z,24.2
2022-11-26T16:17:09.956Z,24.2
2022-11-26T16:22:29.053Z,24.2
2022-11-26T16:27:50.761Z,24.2
2022-11-26T16:33:09.245Z,24.2
2022-11-26T16:38:27.863Z,24.2
2022-11-26T16:43:46.074Z,24.1
2022-11-26T16:49:04.567Z,24.1
2022-11-26T16:54:23.330Z,24.1
2022-11-26T16:59:42.701Z,24.1
2022-11-26T17:05:01.587Z,24.1
2022-11-26T17:10:20.390Z,24.1
2022-11-26T17:15:38.822Z,24.1
2022-11-26T17:20:57.293Z,24.1
2022-11-26T17:26:16.053Z,24
2022-11-26T17:31:34.771Z,24.1
2022-11-26T17:36:52.780Z,24.1
2022-11-26T17:42:11.298Z,24.1
2022-11-26T17:47:30.190Z,24
2022-11-26T17:52:49.172Z,24
2022-11-26T17:58:07.959Z,24
2022-11-26T18:03:26.408Z,24
2022-11-26T18:08:44.895Z,24
2022-11-26T18:14:03.186Z,24
2022-11-26T18:19:21.642Z,24
2022-11-26T18:24:40.393Z,24
2022-11-26T18:29:59.212Z,24
2022-11-26T18:35:17.324Z,24
2022-11-26T18:40:35.815Z,24
2022-11-26T18:45:54.372Z,24
2022-11-26T18:51:12.646Z,24
2022-11-26T18:56:31.141Z,24
2022-11-26T19:01:49.116Z,24
2022-11-26T19:07:07.217Z,24
2022-11-26T19:12:25.697Z,24
2022-11-26T19:17:44.216Z,24
2022-11-26T19:23:02.963Z,24
2022-11-26T19:28:21.463Z,24
2022-11-26T19:33:39.973Z,24
2022-11-26T19:38:58.708Z,24
2022-11-26T19:44:01.884Z,24
2022-11-26T19:49:20.397Z,24
2022-11-26T19:54:38.873Z,24
2022-11-26T19:59:57.071Z,24
2022-11-26T20:05:15.296Z,23.9
2022-11-26T20:10:34.047Z,24
2022-11-26T20:15:52.257Z,23.9
2022-11-26T20:21:10.773Z,23.9
2022-11-26T20:26:29.276Z,23.9
2022-11-26T20:31:47.759Z,23.9
2022-11-26T20:37:05.969Z,23.9
2022-11-26T20:42:24.140Z,23.9
2022-11-26T20:47:42.898Z,23.8
2022-11-26T20:53:01.705Z,23.9
2022-11-26T20:58:20.497Z,23.9
2022-11-26T21:03:38.974Z,23.9
2022-11-26T21:08:57.485Z,23.9
2022-11-26T21:14:16.217Z,23.9
2022-11-26T21:19:34.988Z,23.9
2022-11-26T21:24:53.781Z,23.9
2022-11-26T21:30:12.254Z,23.9
2022-11-26T21:35:30.745Z,23.9
2022-11-26T21:40:49.273Z,23.9
2022-11-26T21:46:07.951Z,23.9
2022-11-26T21:51:26.941Z,23.9
2022-11-26T21:56:45.185Z,23.9
2022-11-26T22:02:03.155Z,23.9
2022-11-26T22:07:21.863Z,23.9
2022-11-26T22:12:40.768Z,23.9
2022-11-26T22:17:59.244Z,23.9
2022-11-26T22:23:17.730Z,23.9
2022-11-26T22:28:36.535Z,23.9
2022-11-26T22:33:55.008Z,23.9
2022-11-26T22:39:13.225Z,23.9
2022-11-26T22:44:32.011Z,23.9
2022-11-26T22:49:50.496Z,23.9
2022-11-26T22:55:08.993Z,23.9
2022-11-26T23:00:27.491Z,23.9
2022-11-26T23:05:45.925Z,23.9
2022-11-26T23:11:04.671Z,23.9
2022-11-26T23:16:07.754Z,23.9
2022-11-26T23:21:26.451Z,23.9
2022-11-26T23:26:45.219Z,23.9
2022-11-26T23:32:03.745Z,23.9
2022-11-26T23:37:22.492Z,23.8
2022-11-26T23:42:41.241Z,23.9
2022-11-26T23:48:00.059Z,23.9
2022-11-26T23:53:18.793Z,23.9
2022-11-26T23:58:37.276Z,23.9
